createdAt,value
2024-03-14T00:00:34.542Z,9.16
2024-03-14T00:01:34.504Z,9.13
2024-03-14T00:02:34.519Z,9.15
2024-03-14T00:03:34.484Z,9.01
2024-03-14T00:04:34.445Z,9.16
2024-03-14T00:05:34.427Z,9.10
2024-03-14T00:06:34.452Z,9.20
2024-03-14T00:07:34.422Z,9.06
2024-03-14T00:08:34.408Z,9.19
2024-03-14T00:09:34.414Z,9.04
2024-03-14T00:10:34.363Z,9.12
2024-03-14T00:11:34.390Z,9.08
2024-03-14T00:12:34.391Z,9.10
2024-03-14T00:13:34.321Z,9.22
2024-03-14T00:14:34.316Z,9.19
2024-03-14T00:15:34.399Z,9.16
2024-03-14T00:16:34.296Z,9.04
2024-03-14T00:17:34.425Z,9.20
2024-03-14T00:18:34.522Z,9.15
2024-03-14T00:19:34.247Z,9.17
2024-03-14T00:20:34.254Z,9.19
2024-03-14T00:21:34.338Z,9.20
2024-03-14T00:22:34.203Z,9.17
2024-03-14T00:23:34.336Z,9.19
2024-03-14T00:24:34.227Z,9.15
2024-03-14T00:25:34.162Z,9.01
2024-03-14T00:26:34.158Z,9.16
2024-03-14T00:27:34.179Z,9.06
2024-03-14T00:28:34.220Z,9.12
2024-03-14T00:29:34.104Z,9.03
2024-03-14T00:30:34.147Z,9.04
2024-03-14T00:31:34.076Z,8.97
2024-03-14T00:32:34.121Z,8.89
2024-03-14T00:33:34.213Z,9.03
2024-03-14T00:34:34.075Z,9.06
2024-03-14T00:35:34.022Z,9.03
2024-03-14T00:36:34.158Z,9.03
2024-03-14T00:37:33.996Z,9.00
2024-03-14T00:38:33.989Z,9.03
2024-03-14T00:39:34.104Z,9.03
2024-03-14T00:40:33.962Z,8.91
2024-03-14T00:41:33.940Z,9.06
2024-03-14T00:42:34.018Z,9.00
2024-03-14T00:43:33.918Z,8.93
2024-03-14T00:44:33.918Z,8.91
2024-03-14T00:45:33.963Z,9.00
2024-03-14T00:46:33.880Z,8.86
2024-03-14T00:47:33.940Z,8.86
2024-03-14T00:48:34.012Z,9.01
2024-03-14T00:49:33.835Z,8.93
2024-03-14T00:50:33.841Z,8.97
2024-03-14T00:51:33.856Z,9.01
2024-03-14T00:52:33.797Z,9.10
2024-03-14T00:53:33.782Z,9.10
2024-03-14T00:54:33.801Z,9.10
2024-03-14T00:55:33.756Z,9.00
2024-03-14T00:56:33.744Z,9.04
2024-03-14T00:57:33.821Z,8.97
2024-03-14T00:58:33.718Z,9.19
2024-03-14T00:59:33.701Z,9.12
2024-03-14T01:00:33.813Z,9.17
2024-03-14T01:01:33.761Z,9.06
2024-03-14T01:02:33.661Z,9.00
2024-03-14T01:03:33.704Z,9.10
2024-03-14T01:04:33.635Z,8.97
2024-03-14T01:05:33.666Z,9.04
2024-03-14T01:06:33.648Z,8.96
2024-03-14T01:07:33.598Z,8.94
2024-03-14T01:08:33.581Z,9.06
2024-03-14T01:09:33.589Z,8.98
2024-03-14T01:10:33.553Z,9.00
2024-03-14T01:11:33.577Z,8.97
2024-03-14T01:12:33.584Z,9.01
2024-03-14T01:13:33.522Z,8.91
2024-03-14T01:14:33.499Z,9.01
2024-03-14T01:15:33.552Z,8.94
2024-03-14T01:16:33.474Z,8.94
2024-03-14T01:17:33.482Z,9.06
2024-03-14T01:18:33.483Z,8.91
2024-03-14T01:19:33.446Z,8.97
2024-03-14T01:20:33.419Z,8.89
2024-03-14T01:21:33.447Z,8.85
2024-03-14T01:22:33.505Z,9.00
2024-03-14T01:23:33.390Z,8.93
2024-03-14T01:24:33.383Z,8.88
2024-03-14T01:25:33.347Z,8.85
2024-03-14T01:26:33.333Z,8.89
2024-03-14T01:27:33.372Z,8.89
2024-03-14T01:28:33.316Z,9.03
2024-03-14T01:29:33.301Z,8.88
2024-03-14T01:30:33.318Z,9.00
2024-03-14T01:31:33.268Z,8.88
2024-03-14T01:32:33.280Z,8.86
2024-03-14T01:33:33.320Z,8.88
2024-03-14T01:34:33.228Z,8.93
2024-03-14T01:35:33.226Z,8.96
2024-03-14T01:36:33.209Z,8.91
2024-03-14T01:37:33.188Z,8.80
2024-03-14T01:38:33.205Z,8.85
2024-03-14T01:39:33.238Z,8.88
2024-03-14T01:40:33.150Z,8.83
2024-03-14T01:41:33.135Z,8.79
2024-03-14T01:42:33.234Z,8.85
2024-03-14T01:43:33.105Z,8.85
2024-03-14T01:44:33.094Z,8.85
2024-03-14T01:45:33.089Z,8.70
2024-03-14T01:46:33.064Z,8.71
2024-03-14T01:47:33.090Z,8.73
2024-03-14T01:48:33.142Z,8.73
2024-03-14T01:49:33.024Z,8.73
2024-03-14T01:50:33.027Z,8.71
2024-03-14T01:51:33.057Z,8.75
2024-03-14T01:52:32.984Z,8.63
2024-03-14T01:53:32.984Z,8.61
2024-03-14T01:54:33.025Z,8.64
2024-03-14T01:55:32.946Z,8.49
2024-03-14T01:56:32.935Z,8.55
2024-03-14T01:57:33.022Z,8.55
2024-03-14T01:58:32.906Z,8.55
2024-03-14T01:59:32.892Z,8.54
2024-03-14T02:00:32.938Z,8.46
2024-03-14T02:01:33.192Z,8.49
2024-03-14T02:02:32.852Z,8.50
2024-03-14T02:03:32.876Z,8.50
2024-03-14T02:04:32.822Z,8.46
2024-03-14T02:05:32.820Z,8.52
2024-03-14T02:06:32.850Z,8.40
2024-03-14T02:07:32.781Z,8.29
2024-03-14T02:08:32.774Z,8.39
2024-03-14T02:09:32.866Z,8.31
2024-03-14T02:10:32.762Z,8.25
2024-03-14T02:11:32.725Z,8.25
2024-03-14T02:12:32.751Z,8.28
2024-03-14T02:13:32.703Z,8.17
2024-03-14T02:14:32.691Z,8.04
2024-03-14T02:15:32.779Z,8.13
2024-03-14T02:16:32.676Z,8.03
2024-03-14T02:17:32.723Z,8.04
2024-03-14T02:18:32.718Z,8.06
2024-03-14T02:19:32.651Z,8.03
2024-03-14T02:20:32.649Z,8.06
2024-03-14T02:21:32.790Z,8.03
2024-03-14T02:22:32.593Z,8.09
2024-03-14T02:23:32.570Z,8.02
2024-03-14T02:24:32.550Z,7.95
2024-03-14T02:25:32.544Z,8.03
2024-03-14T02:26:32.543Z,7.89
2024-03-14T02:27:32.525Z,7.88
2024-03-14T02:28:32.509Z,7.88
2024-03-14T02:29:32.499Z,7.99
2024-03-14T02:30:32.497Z,8.00
2024-03-14T02:31:32.469Z,8.03
2024-03-14T02:32:32.491Z,7.82
2024-03-14T02:33:32.508Z,7.94
2024-03-14T02:34:32.416Z,7.84
2024-03-14T02:35:32.408Z,7.96
2024-03-14T02:36:32.394Z,7.94
2024-03-14T02:37:32.384Z,7.85
2024-03-14T02:38:32.363Z,7.79
2024-03-14T02:39:32.373Z,7.79
2024-03-14T02:40:32.337Z,7.81
2024-03-14T02:41:32.331Z,7.77
2024-03-14T02:42:32.391Z,7.74
2024-03-14T02:43:32.298Z,7.74
2024-03-14T02:44:32.284Z,7.74
2024-03-14T02:45:32.539Z,7.77
2024-03-14T02:46:32.263Z,7.69
2024-03-14T02:47:32.307Z,7.67
2024-03-14T02:48:32.351Z,7.69
2024-03-14T02:49:32.231Z,7.67
2024-03-14T02:50:32.212Z,7.76
2024-03-14T02:51:32.194Z,7.71
2024-03-14T02:52:32.177Z,7.73
2024-03-14T02:53:32.163Z,7.74
2024-03-14T02:54:32.221Z,7.76
2024-03-14T02:55:32.138Z,7.79
2024-03-14T02:56:32.122Z,7.76
2024-03-14T02:57:32.176Z,7.73
2024-03-14T02:58:32.111Z,7.86
2024-03-14T02:59:32.097Z,7.81
2024-03-14T03:00:32.127Z,7.86
2024-03-14T03:01:32.115Z,7.89
2024-03-14T03:02:32.041Z,7.82
2024-03-14T03:03:32.027Z,7.84
2024-03-14T03:04:32.451Z,7.81
2024-03-14T03:05:32.008Z,7.76
2024-03-14T03:06:31.988Z,7.84
2024-03-14T03:07:32.077Z,7.77
2024-03-14T03:08:31.960Z,7.73
2024-03-14T03:09:32.011Z,7.86
2024-03-14T03:10:31.954Z,7.79
2024-03-14T03:11:31.953Z,7.74
2024-03-14T03:12:31.957Z,7.82
2024-03-14T03:13:31.905Z,7.81
2024-03-14T03:14:31.897Z,7.81
2024-03-14T03:15:31.909Z,7.79
2024-03-14T03:16:31.853Z,7.82
2024-03-14T03:17:32.308Z,7.82
2024-03-14T03:18:31.876Z,7.82
2024-03-14T03:19:31.823Z,7.89
2024-03-14T03:20:31.799Z,7.85
2024-03-14T03:21:31.887Z,7.84
2024-03-14T03:22:32.022Z,7.86
2024-03-14T03:23:31.763Z,7.95
2024-03-14T03:24:31.773Z,7.86
2024-03-14T03:25:31.734Z,7.96
2024-03-14T03:26:31.721Z,7.91
2024-03-14T03:27:31.734Z,7.95
2024-03-14T03:28:31.699Z,7.81
2024-03-14T03:29:31.686Z,7.86
2024-03-14T03:30:31.763Z,7.92
2024-03-14T03:31:31.651Z,7.91
2024-03-14T03:32:31.651Z,7.79
2024-03-14T03:33:31.725Z,7.92
2024-03-14T03:34:31.622Z,7.92
2024-03-14T03:35:31.610Z,7.89
2024-03-14T03:36:31.688Z,7.96
2024-03-14T03:37:31.573Z,7.91
2024-03-14T03:38:31.561Z,7.89
2024-03-14T03:39:31.650Z,7.89
2024-03-14T03:40:31.556Z,7.99
2024-03-14T03:41:31.801Z,7.91
2024-03-14T03:42:31.543Z,7.91
2024-03-14T03:43:31.500Z,7.91
2024-03-14T03:44:31.475Z,7.92
2024-03-14T03:45:31.547Z,7.85
2024-03-14T03:46:31.478Z,7.81
2024-03-14T03:47:31.509Z,7.71
2024-03-14T03:48:31.506Z,7.77
2024-03-14T03:49:31.419Z,7.86
2024-03-14T03:50:31.400Z,7.81
2024-03-14T03:51:31.489Z,7.77
2024-03-14T03:52:31.389Z,7.76
2024-03-14T03:53:31.375Z,7.77
2024-03-14T03:54:31.426Z,7.79
2024-03-14T03:55:31.337Z,7.82
2024-03-14T03:56:31.346Z,7.84
2024-03-14T03:57:31.374Z,7.79
2024-03-14T03:58:31.300Z,7.79
2024-03-14T03:59:31.283Z,7.82
2024-03-14T04:00:31.414Z,7.79
2024-03-14T04:01:31.264Z,7.86
2024-03-14T04:02:31.314Z,7.69
2024-03-14T04:03:31.422Z,7.82
2024-03-14T04:04:31.213Z,7.73
2024-03-14T04:05:31.201Z,7.85
2024-03-14T04:06:31.235Z,7.76
2024-03-14T04:07:31.177Z,7.76
2024-03-14T04:08:31.168Z,7.79
2024-03-14T04:09:31.236Z,7.79
2024-03-14T04:10:31.143Z,7.82
2024-03-14T04:11:31.246Z,7.74
2024-03-14T04:12:33.193Z,7.73
2024-03-14T04:13:31.091Z,7.74
2024-03-14T04:14:31.079Z,7.76
2024-03-14T04:15:31.146Z,7.70
2024-03-14T04:16:31.055Z,7.76
2024-03-14T04:17:31.062Z,7.74
2024-03-14T04:18:31.114Z,7.86
2024-03-14T04:19:31.031Z,7.73
2024-03-14T04:20:31.015Z,7.79
2024-03-14T04:21:31.073Z,7.73
2024-03-14T04:22:30.977Z,7.73
2024-03-14T04:23:30.966Z,7.74
2024-03-14T04:24:31.079Z,7.76
2024-03-14T04:25:30.946Z,7.81
2024-03-14T04:26:30.936Z,7.77
2024-03-14T04:27:31.000Z,7.77
2024-03-14T04:28:30.942Z,7.74
2024-03-14T04:29:30.879Z,7.85
2024-03-14T04:30:31.300Z,7.77
2024-03-14T04:31:30.850Z,7.81
2024-03-14T04:32:30.844Z,7.85
2024-03-14T04:33:30.888Z,7.79
2024-03-14T04:34:30.821Z,7.86
2024-03-14T04:35:31.199Z,7.76
2024-03-14T04:36:30.807Z,7.81
2024-03-14T04:37:30.774Z,7.71
2024-03-14T04:38:30.784Z,7.84
2024-03-14T04:39:30.875Z,7.70
2024-03-14T04:40:30.731Z,7.74
2024-03-14T04:41:30.723Z,7.85
2024-03-14T04:42:30.756Z,7.73
2024-03-14T04:43:30.743Z,7.77
2024-03-14T04:44:30.676Z,7.69
2024-03-14T04:45:30.786Z,7.73
2024-03-14T04:46:30.648Z,7.69
2024-03-14T04:47:30.654Z,7.70
2024-03-14T04:48:30.717Z,7.84
2024-03-14T04:49:30.612Z,7.69
2024-03-14T04:50:30.596Z,7.84
2024-03-14T04:51:30.624Z,7.74
2024-03-14T04:52:30.573Z,7.77
2024-03-14T04:53:30.562Z,7.76
2024-03-14T04:54:30.625Z,7.67
2024-03-14T04:55:30.529Z,7.77
2024-03-14T04:56:30.524Z,7.73
2024-03-14T04:57:30.516Z,7.71
2024-03-14T04:58:30.491Z,7.69
2024-03-14T04:59:30.506Z,7.62
2024-03-14T05:00:30.667Z,7.55
2024-03-14T05:01:30.469Z,7.51
2024-03-14T05:02:30.436Z,7.55
2024-03-14T05:03:30.669Z,7.55
2024-03-14T05:04:30.406Z,7.50
2024-03-14T05:05:30.394Z,7.54
2024-03-14T05:06:30.488Z,7.52
2024-03-14T05:07:30.374Z,7.50
2024-03-14T05:08:30.353Z,7.51
2024-03-14T05:09:30.374Z,7.45
2024-03-14T05:10:30.338Z,7.55
2024-03-14T05:11:30.386Z,7.47
2024-03-14T05:12:30.334Z,7.47
2024-03-14T05:13:30.290Z,7.52
2024-03-14T05:14:30.288Z,7.47
2024-03-14T05:15:30.370Z,7.48
2024-03-14T05:16:30.267Z,7.50
2024-03-14T05:17:30.241Z,7.48
2024-03-14T05:18:30.307Z,7.47
2024-03-14T05:19:30.213Z,7.45
2024-03-14T05:20:30.354Z,7.48
2024-03-14T05:21:30.254Z,7.45
2024-03-14T05:22:30.171Z,7.47
2024-03-14T05:23:30.154Z,7.44
2024-03-14T05:24:30.208Z,7.39
2024-03-14T05:25:30.179Z,7.34
2024-03-14T05:26:30.121Z,7.37
2024-03-14T05:27:30.118Z,7.44
2024-03-14T05:28:30.099Z,7.33
2024-03-14T05:29:30.075Z,7.37
2024-03-14T05:30:30.107Z,7.34
2024-03-14T05:31:30.124Z,7.33
2024-03-14T05:32:30.210Z,7.29
2024-03-14T05:33:30.187Z,7.32
2024-03-14T05:34:30.016Z,7.24
2024-03-14T05:35:30.076Z,7.32
2024-03-14T05:36:30.026Z,7.27
2024-03-14T05:37:29.968Z,7.30
2024-03-14T05:38:29.959Z,7.27
2024-03-14T05:39:30.057Z,7.29
2024-03-14T05:40:29.936Z,7.27
2024-03-14T05:41:29.917Z,7.21
2024-03-14T05:42:29.936Z,7.26
2024-03-14T05:43:29.905Z,7.23
2024-03-14T05:44:29.879Z,7.26
2024-03-14T05:45:29.907Z,7.18
2024-03-14T05:46:29.849Z,7.21
2024-03-14T05:47:29.878Z,7.19
2024-03-14T05:48:29.851Z,7.21
2024-03-14T05:49:29.832Z,7.12
2024-03-14T05:50:29.798Z,7.14
2024-03-14T05:51:29.810Z,7.18
2024-03-14T05:52:29.769Z,7.19
2024-03-14T05:53:29.757Z,7.12
2024-03-14T05:54:29.814Z,7.16
2024-03-14T05:55:29.734Z,7.11
2024-03-14T05:56:29.715Z,7.09
2024-03-14T05:57:29.737Z,7.11
2024-03-14T05:58:29.692Z,7.16
2024-03-14T05:59:29.680Z,7.12
2024-03-14T06:00:29.681Z,7.16
2024-03-14T06:01:29.653Z,7.14
2024-03-14T06:02:29.660Z,7.18
2024-03-14T06:03:29.793Z,7.16
2024-03-14T06:04:29.864Z,7.16
2024-03-14T06:05:29.631Z,7.16
2024-03-14T06:06:29.683Z,7.16
2024-03-14T06:07:29.573Z,7.15
2024-03-14T06:08:29.557Z,7.15
2024-03-14T06:09:29.714Z,7.07
2024-03-14T06:10:29.546Z,7.16
2024-03-14T06:11:29.549Z,7.19
2024-03-14T06:12:29.587Z,7.16
2024-03-14T06:13:29.492Z,7.21
2024-03-14T06:14:29.494Z,7.21
2024-03-14T06:15:29.503Z,7.24
2024-03-14T06:16:29.454Z,7.16
2024-03-14T06:17:29.451Z,7.27
2024-03-14T06:18:29.553Z,7.26
2024-03-14T06:19:29.433Z,7.24
2024-03-14T06:20:29.400Z,7.24
2024-03-14T06:21:29.675Z,7.29
2024-03-14T06:22:29.373Z,7.24
2024-03-14T06:23:29.366Z,7.16
2024-03-14T06:24:29.698Z,7.15
2024-03-14T06:25:29.345Z,7.12
2024-03-14T06:26:29.335Z,7.14
2024-03-14T06:27:29.397Z,7.16
2024-03-14T06:28:29.291Z,7.15
2024-03-14T06:29:29.280Z,7.14
2024-03-14T06:30:29.358Z,7.21
2024-03-14T06:31:29.273Z,7.18
2024-03-14T06:32:29.282Z,7.23
2024-03-14T06:33:29.331Z,7.18
2024-03-14T06:34:29.226Z,7.27
2024-03-14T06:35:29.218Z,7.29
2024-03-14T06:36:29.286Z,7.33
2024-03-14T06:37:29.173Z,7.36
2024-03-14T06:38:29.177Z,7.33
2024-03-14T06:39:29.665Z,7.34
2024-03-14T06:40:29.138Z,7.41
2024-03-14T06:41:29.119Z,7.41
2024-03-14T06:42:29.306Z,7.41
2024-03-14T06:43:29.454Z,7.41
2024-03-14T06:44:29.080Z,7.33
2024-03-14T06:45:29.109Z,7.36
2024-03-14T06:46:29.053Z,7.37
2024-03-14T06:47:29.070Z,7.34
2024-03-14T06:48:29.139Z,7.42
2024-03-14T06:49:29.012Z,7.50
2024-03-14T06:50:28.999Z,7.52
2024-03-14T06:51:29.125Z,7.54
2024-03-14T06:52:28.986Z,7.54
2024-03-14T06:53:28.970Z,7.52
2024-03-14T06:54:29.017Z,7.54
2024-03-14T06:55:28.934Z,7.58
2024-03-14T06:56:28.984Z,7.74
2024-03-14T06:57:28.943Z,7.71
2024-03-14T06:58:28.902Z,7.79
2024-03-14T06:59:28.895Z,7.82
2024-03-14T07:00:28.918Z,7.91
2024-03-14T07:01:28.924Z,7.94
2024-03-14T07:02:28.841Z,7.88
2024-03-14T07:03:28.906Z,7.95
2024-03-14T07:04:28.813Z,8.02
2024-03-14T07:05:28.796Z,7.96
2024-03-14T07:06:28.919Z,8.03
2024-03-14T07:07:28.794Z,8.14
2024-03-14T07:08:28.758Z,8.21
2024-03-14T07:09:28.939Z,8.18
2024-03-14T07:10:28.833Z,8.21
2024-03-14T07:11:28.751Z,8.18
2024-03-14T07:12:28.753Z,8.13
2024-03-14T07:13:28.698Z,8.14
2024-03-14T07:14:28.681Z,8.04
2024-03-14T07:15:28.717Z,8.24
2024-03-14T07:16:28.662Z,8.12
2024-03-14T07:17:28.669Z,8.24
2024-03-14T07:18:28.714Z,8.20
2024-03-14T07:19:28.614Z,8.25
2024-03-14T07:20:28.595Z,8.21
2024-03-14T07:21:28.668Z,8.21
2024-03-14T07:22:28.572Z,8.32
2024-03-14T07:23:28.576Z,8.37
2024-03-14T07:24:28.564Z,8.29
2024-03-14T07:25:28.528Z,8.28
2024-03-14T07:26:28.516Z,8.39
2024-03-14T07:27:28.532Z,8.28
2024-03-14T07:28:28.490Z,8.34
2024-03-14T07:29:28.473Z,8.52
2024-03-14T07:30:28.492Z,8.70
2024-03-14T07:31:28.446Z,8.70
2024-03-14T07:32:28.445Z,8.82
2024-03-14T07:33:28.521Z,8.86
2024-03-14T07:34:28.412Z,8.86
2024-03-14T07:35:28.398Z,8.68
2024-03-14T07:36:28.423Z,8.83
2024-03-14T07:37:28.380Z,8.79
2024-03-14T07:38:28.408Z,8.78
2024-03-14T07:39:28.413Z,8.88
2024-03-14T07:40:28.344Z,8.86
2024-03-14T07:41:30.407Z,8.79
2024-03-14T07:42:28.334Z,8.75
2024-03-14T07:43:28.287Z,8.61
2024-03-14T07:44:33.385Z,8.61
2024-03-14T07:45:28.285Z,8.70
2024-03-14T07:46:28.248Z,8.65
2024-03-14T07:47:28.251Z,8.61
2024-03-14T07:48:28.389Z,8.52
2024-03-14T07:49:28.213Z,8.60
2024-03-14T07:50:28.193Z,8.50
2024-03-14T07:51:28.273Z,8.63
2024-03-14T07:52:28.163Z,8.67
2024-03-14T07:53:28.157Z,8.67
2024-03-14T07:54:28.201Z,8.70
2024-03-14T07:55:28.158Z,8.76
2024-03-14T07:56:28.116Z,8.91
2024-03-14T07:57:28.603Z,8.97
2024-03-14T07:58:28.094Z,8.91
2024-03-14T07:59:29.946Z,9.12
2024-03-14T08:00:28.157Z,9.04
2024-03-14T08:01:28.139Z,9.20
2024-03-14T08:02:28.033Z,9.20
2024-03-14T08:03:28.136Z,9.17
2024-03-14T08:04:28.006Z,9.19
2024-03-14T08:05:28.002Z,9.26
2024-03-14T08:06:28.050Z,9.42
2024-03-14T08:07:27.963Z,9.24
2024-03-14T08:08:27.955Z,9.38
2024-03-14T08:09:28.627Z,9.38
2024-03-14T08:10:27.927Z,9.53
2024-03-14T08:11:27.973Z,9.50
2024-03-14T08:12:28.012Z,9.55
2024-03-14T08:13:27.885Z,9.71
2024-03-14T08:14:27.870Z,9.67
2024-03-14T08:15:27.929Z,9.73
2024-03-14T08:16:27.844Z,9.67
2024-03-14T08:17:27.843Z,9.80
2024-03-14T08:18:27.901Z,9.81
2024-03-14T08:19:27.816Z,9.83
2024-03-14T08:20:27.796Z,9.86
2024-03-14T08:21:27.818Z,9.92
2024-03-14T08:22:27.768Z,10.07
2024-03-14T08:23:28.446Z,10.10
2024-03-14T08:24:27.810Z,10.31
2024-03-14T08:25:27.721Z,10.39
2024-03-14T08:26:27.710Z,10.46
2024-03-14T08:27:27.776Z,10.54
2024-03-14T08:28:27.694Z,10.44
2024-03-14T08:29:27.666Z,10.68
2024-03-14T08:30:27.668Z,10.70
2024-03-14T08:31:27.644Z,10.93
2024-03-14T08:32:27.638Z,11.01
2024-03-14T08:33:27.796Z,10.90
2024-03-14T08:34:27.604Z,10.98
2024-03-14T08:35:27.586Z,11.02
2024-03-14T08:36:27.577Z,11.21
2024-03-14T08:37:27.562Z,11.46
2024-03-14T08:38:27.544Z,11.64
2024-03-14T08:39:27.652Z,11.81
2024-03-14T08:40:27.526Z,11.97
2024-03-14T08:41:27.509Z,12.18
2024-03-14T08:42:28.528Z,12.34
2024-03-14T08:43:27.510Z,12.62
2024-03-14T08:44:27.471Z,12.89
2024-03-14T08:45:27.540Z,13.09
2024-03-14T08:46:27.445Z,13.14
2024-03-14T08:47:27.659Z,13.22
2024-03-14T08:48:27.524Z,13.28
2024-03-14T08:49:27.699Z,13.43
2024-03-14T08:50:28.752Z,13.63
2024-03-14T08:51:27.410Z,13.88
2024-03-14T08:52:27.675Z,14.23
2024-03-14T08:53:27.348Z,14.41
2024-03-14T08:54:27.378Z,14.44
2024-03-14T08:55:27.321Z,14.83
2024-03-14T08:56:27.313Z,15.09
2024-03-14T08:57:27.423Z,15.20
2024-03-14T08:58:27.827Z,15.40
2024-03-14T08:59:27.297Z,15.70
2024-03-14T09:00:27.287Z,15.76
2024-03-14T09:01:27.259Z,16.14
2024-03-14T09:02:27.244Z,16.32
2024-03-14T09:03:27.268Z,16.42
2024-03-14T09:04:27.202Z,16.40
2024-03-14T09:05:27.188Z,16.36
2024-03-14T09:06:27.175Z,16.59
2024-03-14T09:07:27.162Z,16.48
2024-03-14T09:08:27.157Z,16.32
2024-03-14T09:09:27.187Z,16.34
2024-03-14T09:10:27.129Z,16.40
2024-03-14T09:11:27.146Z,16.40
2024-03-14T09:12:27.191Z,16.41
2024-03-14T09:13:27.308Z,16.69
2024-03-14T09:14:27.068Z,16.62
2024-03-14T09:15:27.138Z,16.51
2024-03-14T09:16:27.040Z,16.41
2024-03-14T09:17:27.113Z,16.37
2024-03-14T09:18:28.268Z,16.29
2024-03-14T09:19:27.001Z,16.17
2024-03-14T09:20:27.038Z,16.06
2024-03-14T09:21:27.078Z,15.86
2024-03-14T09:22:26.973Z,15.76
2024-03-14T09:23:27.288Z,15.62
2024-03-14T09:24:26.973Z,15.68
2024-03-14T09:25:26.920Z,15.81
2024-03-14T09:26:26.907Z,15.70
2024-03-14T09:27:26.946Z,15.60
2024-03-14T09:28:26.883Z,15.60
2024-03-14T09:29:26.866Z,15.44
2024-03-14T09:30:26.913Z,15.34
2024-03-14T09:31:26.877Z,15.20
2024-03-14T09:32:26.849Z,15.18
2024-03-14T09:33:26.872Z,15.19
2024-03-14T09:34:26.809Z,15.22
2024-03-14T09:35:27.667Z,15.12
2024-03-14T09:36:26.808Z,15.23
2024-03-14T09:37:26.758Z,15.30
2024-03-14T09:38:26.751Z,15.52
2024-03-14T09:39:26.755Z,15.85
2024-03-14T09:40:26.736Z,15.99
2024-03-14T09:41:27.559Z,16.07
2024-03-14T09:42:26.770Z,16.30
2024-03-14T09:43:26.694Z,16.36
2024-03-14T09:44:26.677Z,16.41
2024-03-14T09:45:26.814Z,16.52
2024-03-14T09:46:26.641Z,16.62
2024-03-14T09:47:26.949Z,16.66
2024-03-14T09:48:26.664Z,16.27
2024-03-14T09:49:26.601Z,16.11
2024-03-14T09:50:26.586Z,15.81
2024-03-14T09:51:26.670Z,15.60
2024-03-14T09:52:26.566Z,15.53
2024-03-14T09:53:26.550Z,15.60
2024-03-14T09:54:26.575Z,15.56
2024-03-14T09:55:26.641Z,15.43
2024-03-14T09:56:26.508Z,15.05
2024-03-14T09:57:26.542Z,14.83
2024-03-14T09:58:26.508Z,14.71
2024-03-14T09:59:26.514Z,14.82
2024-03-14T10:00:26.500Z,14.83
2024-03-14T10:01:26.479Z,14.74
2024-03-14T10:02:26.439Z,14.53
2024-03-14T10:03:26.556Z,14.54
2024-03-14T10:04:26.404Z,14.49
2024-03-14T10:05:26.409Z,14.45
2024-03-14T10:06:26.410Z,14.38
2024-03-14T10:07:26.363Z,14.39
2024-03-14T10:08:26.356Z,14.29
2024-03-14T10:09:28.226Z,14.31
2024-03-14T10:10:26.360Z,14.24
2024-03-14T10:11:26.347Z,14.30
2024-03-14T10:12:26.373Z,14.27
2024-03-14T10:13:26.308Z,14.24
2024-03-14T10:14:26.269Z,14.23
2024-03-14T10:15:26.362Z,14.30
2024-03-14T10:16:26.260Z,14.31
2024-03-14T10:17:26.316Z,14.35
2024-03-14T10:18:26.325Z,14.30
2024-03-14T10:19:26.227Z,14.17
2024-03-14T10:20:26.209Z,14.21
2024-03-14T10:21:26.217Z,14.30
2024-03-14T10:22:26.165Z,14.38
2024-03-14T10:23:26.161Z,14.31
2024-03-14T10:24:26.170Z,14.34
2024-03-14T10:25:26.209Z,14.38
2024-03-14T10:26:26.191Z,14.38
2024-03-14T10:27:26.113Z,14.46
2024-03-14T10:28:26.083Z,14.67
2024-03-14T10:29:26.072Z,15.28
2024-03-14T10:30:26.232Z,15.95
2024-03-14T10:31:26.052Z,16.16
2024-03-14T10:32:26.030Z,16.67
2024-03-14T10:33:26.064Z,16.99
2024-03-14T10:34:26.029Z,16.88
2024-03-14T10:35:26.046Z,16.88
2024-03-14T10:36:26.016Z,17.05
2024-03-14T10:37:25.959Z,16.81
2024-03-14T10:38:25.945Z,16.72
2024-03-14T10:39:25.974Z,16.80
2024-03-14T10:40:25.922Z,16.73
2024-03-14T10:41:25.906Z,16.51
2024-03-14T10:42:25.932Z,16.50
2024-03-14T10:43:25.883Z,16.47
2024-03-14T10:44:25.967Z,16.54
2024-03-14T10:45:26.050Z,16.66
2024-03-14T10:46:25.846Z,16.69
2024-03-14T10:47:25.822Z,16.60
2024-03-14T10:48:25.913Z,16.59
2024-03-14T10:49:25.896Z,16.47
2024-03-14T10:50:25.799Z,16.48
2024-03-14T10:51:25.811Z,16.40
2024-03-14T10:52:25.760Z,16.18
2024-03-14T10:53:25.774Z,16.18
2024-03-14T10:54:25.799Z,16.03
2024-03-14T10:55:25.729Z,16.07
2024-03-14T10:56:25.724Z,16.11
2024-03-14T10:57:25.708Z,16.08
2024-03-14T10:58:25.679Z,16.03
2024-03-14T10:59:25.666Z,15.99
2024-03-14T11:00:25.730Z,15.93
2024-03-14T11:01:25.889Z,15.99
2024-03-14T11:02:25.626Z,16.08
2024-03-14T11:03:25.659Z,16.01
2024-03-14T11:04:25.600Z,16.04
2024-03-14T11:05:25.598Z,16.14
2024-03-14T11:06:25.810Z,16.14
2024-03-14T11:07:25.742Z,16.03
2024-03-14T11:08:25.544Z,15.93
2024-03-14T11:09:25.585Z,16.03
2024-03-14T11:10:25.558Z,16.13
2024-03-14T11:11:25.526Z,16.14
2024-03-14T11:12:25.552Z,16.11
2024-03-14T11:13:25.485Z,16.11
2024-03-14T11:14:25.465Z,15.96
2024-03-14T11:15:25.523Z,15.81
2024-03-14T11:16:25.439Z,15.86
2024-03-14T11:17:25.428Z,15.88
2024-03-14T11:18:25.602Z,15.86
2024-03-14T11:19:25.404Z,15.92
2024-03-14T11:20:25.388Z,15.91
2024-03-14T11:21:25.395Z,15.93
2024-03-14T11:22:25.363Z,15.98
2024-03-14T11:23:25.470Z,16.08
2024-03-14T11:24:25.378Z,16.14
2024-03-14T11:25:25.319Z,16.11
2024-03-14T11:26:25.306Z,16.17
2024-03-14T11:27:25.333Z,16.22
2024-03-14T11:28:25.281Z,16.30
2024-03-14T11:29:25.268Z,16.34
2024-03-14T11:30:25.319Z,16.45
2024-03-14T11:31:25.242Z,16.48
2024-03-14T11:32:25.279Z,16.52
2024-03-14T11:33:25.319Z,16.54
2024-03-14T11:34:25.214Z,16.67
2024-03-14T11:35:25.185Z,16.92
2024-03-14T11:36:25.242Z,17.09
2024-03-14T11:37:25.157Z,17.30
2024-03-14T11:38:25.143Z,17.43
2024-03-14T11:39:25.190Z,17.77
2024-03-14T11:40:25.156Z,17.73
2024-03-14T11:41:25.110Z,17.74
2024-03-14T11:42:25.217Z,17.71
2024-03-14T11:43:25.083Z,17.68
2024-03-14T11:44:25.071Z,17.79
2024-03-14T11:45:25.139Z,17.84
2024-03-14T11:46:25.044Z,17.87
2024-03-14T11:47:25.025Z,17.92
2024-03-14T11:48:25.147Z,17.99
2024-03-14T11:49:25.008Z,18.17
2024-03-14T11:50:24.986Z,18.19
2024-03-14T11:51:25.026Z,18.19
2024-03-14T11:52:24.961Z,18.04
2024-03-14T11:53:24.957Z,17.94
2024-03-14T11:54:25.148Z,17.89
2024-03-14T11:55:24.943Z,18.05
2024-03-14T11:56:24.907Z,18.13
2024-03-14T11:57:24.917Z,18.23
2024-03-14T11:58:24.894Z,18.29
2024-03-14T11:59:24.901Z,18.36
2024-03-14T12:00:24.876Z,18.38
2024-03-14T12:01:28.753Z,18.36
2024-03-14T12:02:25.872Z,18.34
2024-03-14T12:03:24.890Z,18.41
2024-03-14T12:04:24.801Z,18.44
2024-03-14T12:05:24.787Z,18.49
2024-03-14T12:06:24.899Z,18.54
2024-03-14T12:07:24.776Z,18.74
2024-03-14T12:08:24.771Z,18.84
2024-03-14T12:09:24.808Z,18.82
2024-03-14T12:10:24.757Z,18.89
2024-03-14T12:11:24.754Z,18.91
2024-03-14T12:12:24.723Z,18.97
2024-03-14T12:13:24.734Z,19.05
2024-03-14T12:14:24.777Z,18.90
2024-03-14T12:15:24.708Z,18.72
2024-03-14T12:16:24.652Z,18.35
2024-03-14T12:17:24.634Z,18.17
2024-03-14T12:18:24.693Z,18.10
2024-03-14T12:19:24.802Z,17.99
2024-03-14T12:20:24.614Z,17.92
2024-03-14T12:21:24.581Z,17.96
2024-03-14T12:22:24.595Z,18.14
2024-03-14T12:23:24.571Z,18.38
2024-03-14T12:24:24.530Z,18.53
2024-03-14T12:25:24.530Z,18.76
2024-03-14T12:26:24.587Z,18.90
2024-03-14T12:27:24.681Z,18.99
2024-03-14T12:28:24.480Z,19.09
2024-03-14T12:29:24.517Z,19.31
2024-03-14T12:30:24.474Z,19.53
2024-03-14T12:31:24.566Z,19.79
2024-03-14T12:32:24.430Z,19.89
2024-03-14T12:33:24.451Z,19.98
2024-03-14T12:34:24.431Z,20.10
2024-03-14T12:35:24.460Z,20.16
2024-03-14T12:36:24.639Z,20.26
2024-03-14T12:37:24.362Z,20.26
2024-03-14T12:38:24.436Z,20.30
2024-03-14T12:39:24.366Z,20.31
2024-03-14T12:40:24.387Z,20.12
2024-03-14T12:41:24.719Z,20.04
2024-03-14T12:42:24.321Z,20.13
2024-03-14T12:43:24.306Z,20.30
2024-03-14T12:44:24.273Z,20.38
2024-03-14T12:45:24.315Z,20.07
2024-03-14T12:46:24.586Z,19.78
2024-03-14T12:47:24.227Z,19.62
2024-03-14T12:48:24.281Z,19.62
2024-03-14T12:49:24.207Z,19.57
2024-03-14T12:50:24.187Z,19.52
2024-03-14T12:51:24.654Z,19.60
2024-03-14T12:52:24.167Z,19.70
2024-03-14T12:53:24.149Z,19.68
2024-03-14T12:54:24.193Z,19.75
2024-03-14T12:55:24.129Z,19.80
2024-03-14T12:56:24.170Z,19.83
2024-03-14T12:57:24.131Z,19.82
2024-03-14T12:58:24.288Z,19.79
2024-03-14T12:59:24.358Z,19.82
2024-03-14T13:00:24.086Z,19.95
2024-03-14T13:01:24.096Z,20.00
2024-03-14T13:02:24.028Z,20.02
2024-03-14T13:03:24.219Z,20.04
2024-03-14T13:04:24.006Z,19.90
2024-03-14T13:05:24.136Z,19.98
2024-03-14T13:06:24.024Z,20.10
2024-03-14T13:07:24.024Z,20.13
2024-03-14T13:08:23.957Z,20.12